Terminal Aerodrome Forecast
Issued by NWS

Home | Current Version | Previous Version | Text Only | Print | Product List | Glossary On
Versions: 1 2 3 4 5 6 7 8 9 10 11 12 13 14 15 16 17
608
FTUS43 KDLH 091431 AAB
TAFHIB
TAF AMD
KHIB 091431Z 0915/1012 33014G18KT 6SM -SN BKN014 BKN040
     FM091700 33012G20KT P6SM SCT014
     FM100100 34011KT P6SM SKC=

USA.gov is the U.S. government's official web portal to all federal, state and local government web resources and services.